EGPF

Glasgow International Airport

Glasgow, United Kingdom
TAF AMD EGPF 192254Z 1922/2018 22025G35KT 9999 SCT040 PROB40 TEMPO 1922/2006 6000 SHRA BECMG 2009/2012 22008KT
Issued Valid From Valid To
Sep-19 @ 22:54 UTC
(16 minutes ago)
Sep-19 @ 22:00 UTC
(an hour ago)
Sep-20 @ 18:00 UTC
(in 19 hours)
Sep-19 @ 22:00 to Sep-20 @ 09:00
TAF AMD EGPF 192254Z 1922/2018 22025G35KT 9999 SCT040
Wind Visibility Clouds
220° at 25 knots
 Gusting to 35 knots
10,000+ meters
  • Scattered at 4,000' AGL
Temporary  (Probability 40%) Sep-19 @ 22:00 to Sep-20 @ 06:00
PROB40 TEMPO 1922/2006 6000 SHRA
Visibility Conditions
6,003 meters
  • Rain
Becoming Sep-20 @ 09:00 to Sep-20 @ 18:00
BECMG 2009/2012 22008KT
Wind Visibility Clouds
220° at 8 knots 10,000+ meters
  • Scattered at 4,000' AGL
TAF AMD EGPF 192254Z 1922/2018 22025G35KT 9999 SCT040 PROB40 TEMPO 1922/2006 6000 SHRA BECMG 2009/2012 22008KT
Issued Sep-19 @ 22:54 UTC
(16 minutes ago)
Valid From Sep-19 @ 22:00 UTC
(an hour ago)
Valid To Sep-20 @ 18:00 UTC
(in 19 hours)
Sep-19 @ 22:00 - Sep-20 @ 09:00
Wind Visibility
220° at 25 knots
 Gusting to 35 knots
10,000+ meters
Clouds
  • Scattered at 4,000' AGL
Probability 40% Temporary Sep-19 @ 22:00 - Sep-20 @ 06:00
Conditions
  • Rain
Becoming Sep-20 @ 09:00 - Sep-20 @ 18:00
Wind Visibility
220° at 8 knots 10,000+ meters
Clouds
  • Scattered at 4,000' AGL